createdAt,value
2023-04-13T00:00:36.519Z,3.74
2023-04-13T00:03:18.388Z,3.76
2023-04-13T00:06:05.097Z,3.75
2023-04-13T00:08:39.079Z,3.71
2023-04-13T00:11:08.034Z,3.71
2023-04-13T00:13:59.782Z,3.70
2023-04-13T00:16:52.332Z,3.69
2023-04-13T00:19:31.463Z,3.68
2023-04-13T00:26:06.630Z,3.64
2023-04-13T00:29:20.000Z,3.63
2023-04-13T00:32:14.277Z,3.60
2023-04-13T00:35:22.183Z,3.60
2023-04-13T00:38:00.716Z,3.63
2023-04-13T00:40:54.581Z,3.66
2023-04-13T00:43:51.422Z,3.70
2023-04-13T00:54:17.018Z,3.71
2023-04-13T00:57:51.368Z,3.70
2023-04-13T01:01:07.803Z,3.70
2023-04-13T01:04:01.258Z,3.71
2023-04-13T01:07:27.476Z,3.70
2023-04-13T01:10:09.254Z,3.69
2023-04-13T01:12:37.761Z,3.68
2023-04-13T01:15:31.657Z,3.66
2023-04-13T01:18:10.646Z,3.65
2023-04-13T01:20:59.695Z,3.63
2023-04-13T01:23:44.024Z,3.62
2023-04-13T01:26:13.566Z,3.60
2023-04-13T01:28:51.083Z,3.60
2023-04-13T01:31:39.598Z,3.61
2023-04-13T01:34:07.994Z,3.64
2023-04-13T01:36:49.854Z,3.68
2023-04-13T01:39:22.130Z,3.72
2023-04-13T01:41:57.555Z,3.76
2023-04-13T01:44:25.192Z,3.79
2023-04-13T01:46:53.188Z,3.83
2023-04-13T01:49:48.152Z,3.87
2023-04-13T01:52:32.594Z,3.88
2023-04-13T01:55:00.623Z,3.91
2023-04-13T01:57:29.148Z,3.93
2023-04-13T01:59:56.223Z,3.97
2023-04-13T02:02:22.924Z,4.02
2023-04-13T02:04:49.476Z,4.07
2023-04-13T02:07:16.085Z,4.13
2023-04-13T02:09:46.181Z,4.18
2023-04-13T02:12:12.512Z,4.21
2023-04-13T02:14:39.033Z,4.25
2023-04-13T02:17:05.508Z,4.27
2023-04-13T02:19:32.814Z,4.29
2023-04-13T02:22:02.106Z,4.31
2023-04-13T02:24:28.857Z,4.34
2023-04-13T02:26:55.173Z,4.37
2023-04-13T02:29:21.681Z,4.40
2023-04-13T02:31:48.110Z,4.42
2023-04-13T02:34:14.649Z,4.43
2023-04-13T02:36:42.252Z,4.45
2023-04-13T02:39:09.029Z,4.46
2023-04-13T02:41:35.432Z,4.48
2023-04-13T02:44:02.291Z,4.51
2023-04-13T02:46:33.859Z,4.52
2023-04-13T02:49:10.488Z,4.53
2023-04-13T02:51:42.068Z,4.52
2023-04-13T02:54:10.070Z,4.50
2023-04-13T02:56:37.669Z,4.48
2023-04-13T02:59:04.517Z,4.45
2023-04-13T03:01:30.879Z,4.43
2023-04-13T03:03:58.031Z,4.40
2023-04-13T03:06:25.860Z,4.38
2023-04-13T03:08:55.791Z,4.36
2023-04-13T03:11:23.150Z,4.35
2023-04-13T03:13:55.008Z,4.34
2023-04-13T03:16:21.434Z,4.33
2023-04-13T03:18:47.907Z,4.33
2023-04-13T03:21:14.928Z,4.32
2023-04-13T03:23:58.194Z,4.33
2023-04-13T03:26:25.095Z,4.34
2023-04-13T03:28:52.343Z,4.34
2023-04-13T03:31:19.190Z,4.35
2023-04-13T03:33:46.531Z,4.37
2023-04-13T03:36:13.746Z,4.38
2023-04-13T03:38:40.936Z,4.38
2023-04-13T03:41:07.636Z,4.40
2023-04-13T03:43:34.323Z,4.40
2023-04-13T03:46:04.557Z,4.42
2023-04-13T03:48:31.503Z,4.43
2023-04-13T03:51:00.146Z,4.44
2023-04-13T03:53:32.543Z,4.47
2023-04-13T03:55:58.878Z,4.48
2023-04-13T03:58:25.267Z,4.50
2023-04-13T04:00:51.715Z,4.52
2023-04-13T04:03:22.953Z,4.55
2023-04-13T04:05:58.597Z,4.59
2023-04-13T04:08:26.341Z,4.63
2023-04-13T04:10:54.259Z,4.67
2023-04-13T04:13:21.273Z,4.70
2023-04-13T04:15:50.277Z,4.72
2023-04-13T04:18:16.835Z,4.73
2023-04-13T04:20:44.050Z,4.76
2023-04-13T04:23:10.609Z,4.78
2023-04-13T04:25:43.321Z,4.82
2023-04-13T04:28:09.789Z,4.86
2023-04-13T04:30:36.233Z,4.90
2023-04-13T04:33:02.768Z,4.94
2023-04-13T04:35:33.129Z,4.99
2023-04-13T04:38:00.558Z,5.04
2023-04-13T04:40:26.803Z,5.10
2023-04-13T04:42:53.972Z,5.15
2023-04-13T04:45:30.847Z,5.22
2023-04-13T04:47:58.455Z,5.28
2023-04-13T04:50:26.350Z,5.34
2023-04-13T04:52:58.807Z,5.41
2023-04-13T04:55:25.169Z,5.47
2023-04-13T04:57:51.572Z,5.54
2023-04-13T05:00:20.021Z,5.61
2023-04-13T05:02:57.914Z,5.68
2023-04-13T05:05:24.806Z,5.74
2023-04-13T05:07:51.310Z,5.79
2023-04-13T05:10:17.900Z,5.85
2023-04-13T05:12:50.302Z,5.92
2023-04-13T05:15:17.250Z,5.99
2023-04-13T05:17:44.326Z,6.07
2023-04-13T05:20:11.050Z,6.14
2023-04-13T05:22:45.345Z,6.22
2023-04-13T05:25:11.917Z,6.32
2023-04-13T05:27:38.526Z,6.43
2023-04-13T05:30:05.167Z,6.56
2023-04-13T05:32:33.566Z,6.71
2023-04-13T05:35:00.010Z,6.86
2023-04-13T05:37:26.983Z,7.02
2023-04-13T05:39:53.722Z,7.27
2023-04-13T05:42:23.461Z,7.57
2023-04-13T05:44:49.962Z,7.84
2023-04-13T05:47:18.499Z,8.09
2023-04-13T05:49:45.535Z,8.34
2023-04-13T05:52:12.331Z,8.55
2023-04-13T05:54:44.146Z,8.74
2023-04-13T05:57:10.468Z,8.87
2023-04-13T05:59:39.322Z,8.97
2023-04-13T06:02:05.936Z,9.11
2023-04-13T06:04:32.418Z,9.23
2023-04-13T07:03:12.550Z,11.72
2023-04-13T07:05:39.676Z,11.84
2023-04-13T07:08:10.333Z,11.93
2023-04-13T07:10:37.193Z,12.01
2023-04-13T07:13:03.692Z,12.07
2023-04-13T07:15:30.736Z,12.15
2023-04-13T07:17:57.447Z,12.21
2023-04-13T07:20:23.874Z,12.27
2023-04-13T08:23:41.762Z,16.82
2023-04-13T08:26:16.799Z,16.84
2023-04-13T08:28:44.697Z,16.76
2023-04-13T08:31:21.710Z,16.66
2023-04-13T08:42:45.781Z,16.48
2023-04-13T08:45:38.993Z,16.46
2023-04-13T09:12:17.082Z,16.50
2023-04-13T09:14:43.999Z,16.47
2023-04-13T09:17:21.188Z,16.38
2023-04-13T09:19:49.807Z,16.42
2023-04-13T10:36:04.364Z,20.34
2023-04-13T10:41:39.950Z,20.68
2023-04-13T10:49:47.940Z,21.69
2023-04-13T10:52:16.043Z,22.02
2023-04-13T11:04:10.346Z,22.37
2023-04-13T11:06:40.693Z,21.74
2023-04-13T11:09:08.136Z,21.28
2023-04-13T11:17:50.561Z,21.83
2023-04-13T11:20:17.273Z,22.85
2023-04-13T11:23:16.124Z,23.84
2023-04-13T11:25:59.871Z,24.91
2023-04-13T11:28:37.601Z,25.64
2023-04-13T11:31:04.119Z,25.52
2023-04-13T11:33:30.735Z,25.22
2023-04-13T11:39:14.935Z,24.15
2023-04-13T11:48:11.922Z,23.43
2023-04-13T11:50:50.201Z,23.48
2023-04-13T11:56:20.081Z,23.99
2023-04-13T11:59:11.150Z,24.32
2023-04-13T12:13:38.000Z,25.25
2023-04-13T12:16:11.293Z,26.38
2023-04-13T12:18:47.023Z,27.61
2023-04-13T12:21:24.109Z,28.85
2023-04-13T12:23:54.283Z,29.45
2023-04-13T12:26:59.151Z,30.26
2023-04-13T12:29:08.378Z,30.13
2023-04-13T12:31:38.764Z,29.33
2023-04-13T12:34:05.929Z,28.60
2023-04-13T12:36:33.768Z,28.09
2023-04-13T12:39:00.286Z,27.15
2023-04-13T12:41:26.911Z,26.05
2023-04-13T12:43:53.444Z,24.89
2023-04-13T12:46:19.789Z,23.96
2023-04-13T12:48:46.075Z,23.09
2023-04-13T12:51:12.697Z,22.30
2023-04-13T12:53:38.999Z,21.59
2023-04-13T12:56:08.585Z,20.95
2023-04-13T12:58:35.319Z,20.36
2023-04-13T13:01:01.773Z,19.90
2023-04-13T13:03:28.217Z,19.49
2023-04-13T13:05:55.006Z,19.10
2023-04-13T13:08:21.280Z,18.78
2023-04-13T13:10:47.568Z,18.51
2023-04-13T13:13:17.169Z,18.31
2023-04-13T13:15:43.439Z,18.13
2023-04-13T13:18:09.696Z,17.99
2023-04-13T13:20:36.568Z,17.84
2023-04-13T13:23:02.848Z,17.69
2023-04-13T13:25:29.258Z,17.52
2023-04-13T13:28:13.285Z,17.35
2023-04-13T13:30:40.956Z,17.20
2023-04-13T13:33:07.995Z,17.07
2023-04-13T13:35:34.315Z,16.97
2023-04-13T13:38:01.270Z,16.90
2023-04-13T13:40:27.783Z,16.84
2023-04-13T13:42:54.154Z,16.80
2023-04-13T14:07:42.529Z,16.23
2023-04-13T14:10:09.302Z,16.16
2023-04-13T14:12:39.483Z,16.09
2023-04-13T14:15:06.990Z,15.99
2023-04-13T14:17:33.733Z,15.92
2023-04-13T14:20:00.526Z,15.88
2023-04-13T14:22:27.010Z,15.83
2023-04-13T14:24:53.435Z,15.77
2023-04-13T14:27:19.911Z,15.67
2023-04-13T14:29:46.317Z,15.59
2023-04-13T14:32:12.870Z,15.52
2023-04-13T14:34:39.145Z,15.45
2023-04-13T14:37:05.582Z,15.39
2023-04-13T14:39:31.844Z,15.37
2023-04-13T14:41:58.114Z,15.37
2023-04-13T14:44:24.627Z,15.38
2023-04-13T14:46:51.102Z,15.34
2023-04-13T14:49:17.466Z,15.25
2023-04-13T14:51:43.958Z,15.14
2023-04-13T14:54:10.289Z,15.00
2023-04-13T14:56:36.635Z,14.85
2023-04-13T14:59:03.718Z,14.76
2023-04-13T15:01:30.208Z,14.69
2023-04-13T15:03:56.849Z,14.65
2023-04-13T15:06:23.582Z,14.58
2023-04-13T15:08:49.912Z,14.55
2023-04-13T15:11:16.264Z,14.52
2023-04-13T15:13:42.820Z,14.45
2023-04-13T15:16:09.120Z,14.39
2023-04-13T15:18:35.559Z,14.34
2023-04-13T15:21:05.326Z,14.33
2023-04-13T15:23:32.057Z,14.28
2023-04-13T15:25:58.726Z,14.20
2023-04-13T15:28:25.234Z,14.13
2023-04-13T15:30:51.517Z,14.00
2023-04-13T15:33:18.319Z,13.91
2023-04-13T15:35:45.127Z,13.84
2023-04-13T15:38:11.590Z,13.74
2023-04-13T15:40:37.923Z,13.60
2023-04-13T15:43:04.655Z,13.49
2023-04-13T15:45:31.627Z,13.35
2023-04-13T15:47:58.381Z,13.26
2023-04-13T15:50:25.017Z,13.15
2023-04-13T15:52:51.516Z,13.09
2023-04-13T15:55:18.011Z,13.03
2023-04-13T15:57:44.533Z,12.96
2023-04-13T16:00:11.094Z,12.91
2023-04-13T16:02:37.590Z,12.85
2023-04-13T16:05:04.684Z,12.82
2023-04-13T16:07:31.010Z,12.78
2023-04-13T16:09:57.355Z,12.76
2023-04-13T16:12:27.569Z,12.74
2023-04-13T16:14:53.859Z,12.69
2023-04-13T16:17:20.221Z,12.62
2023-04-13T16:19:46.959Z,12.56
2023-04-13T16:22:13.965Z,12.51
2023-04-13T16:24:45.733Z,12.47
2023-04-13T16:27:12.076Z,12.40
2023-04-13T16:29:38.447Z,12.31
2023-04-13T16:32:04.890Z,12.25
2023-04-13T16:34:31.220Z,12.21
2023-04-13T16:36:58.035Z,12.18
2023-04-13T16:39:24.661Z,12.15
2023-04-13T16:41:50.934Z,12.08
2023-04-13T16:44:17.573Z,11.99
2023-04-13T16:46:44.164Z,11.91
2023-04-13T16:49:10.836Z,11.83
2023-04-13T16:51:37.319Z,11.74
2023-04-13T16:54:04.106Z,11.65
2023-04-13T16:56:39.906Z,11.61
2023-04-13T16:59:10.371Z,11.56
2023-04-13T17:01:39.207Z,11.53
2023-04-13T17:04:06.744Z,11.49
2023-04-13T17:06:37.371Z,11.46
2023-04-13T17:09:07.086Z,11.39
2023-04-13T17:11:33.900Z,11.30
2023-04-13T17:14:00.278Z,11.22
2023-04-13T17:16:26.943Z,11.16
2023-04-13T17:18:53.344Z,11.13
2023-04-13T17:21:19.951Z,11.09
2023-04-13T17:23:46.705Z,11.05
2023-04-13T17:26:13.950Z,11.00
2023-04-13T17:28:40.486Z,10.93
2023-04-13T17:31:34.612Z,10.87
2023-04-13T17:34:10.992Z,10.80
2023-04-13T17:36:38.653Z,10.74
2023-04-13T17:39:05.042Z,10.68
2023-04-13T17:41:31.986Z,10.62
2023-04-13T17:44:00.615Z,10.57
2023-04-13T17:46:30.965Z,10.50
2023-04-13T17:49:22.978Z,10.46
2023-04-13T17:51:49.879Z,10.43
2023-04-13T17:54:16.661Z,10.39
2023-04-13T17:56:43.726Z,10.35
2023-04-13T17:59:11.483Z,10.31
2023-04-13T18:01:38.095Z,10.27
2023-04-13T18:04:05.148Z,10.22
2023-04-13T18:06:34.492Z,10.16
2023-04-13T18:09:01.653Z,10.13
2023-04-13T18:11:28.536Z,10.08
